sensor_id;sensor_type;location;lat;lon;timestamp;temperature;humidity
15328;DHT22;7764;51.430;6.840;2023-07-16T00:01:01;20.30;99.90
15328;DHT22;7764;51.430;6.840;2023-07-16T00:03:28;20.30;99.90
15328;DHT22;7764;51.430;6.840;2023-07-16T00:05:55;20.20;99.90
15328;DHT22;7764;51.430;6.840;2023-07-16T00:08:23;20.20;99.90
15328;DHT22;7764;51.430;6.840;2023-07-16T00:10:50;20.20;99.90
15328;DHT22;7764;51.430;6.840;2023-07-16T00:13:17;20.20;99.90
15328;DHT22;7764;51.430;6.840;2023-07-16T00:15:43;20.10;99.90
15328;DHT22;7764;51.430;6.840;2023-07-16T00:18:10;20.10;99.90
15328;DHT22;7764;51.430;6.840;2023-07-16T00:20:37;20.10;99.90
15328;DHT22;7764;51.430;6.840;2023-07-16T00:23:04;20.10;99.90
15328;DHT22;7764;51.430;6.840;2023-07-16T00:25:32;20.10;99.90
15328;DHT22;7764;51.430;6.840;2023-07-16T00:28:00;20.10;99.90
15328;DHT22;7764;51.430;6.840;2023-07-16T00:30:27;20.20;99.90
15328;DHT22;7764;51.430;6.840;2023-07-16T00:32:54;20.10;99.90
15328;DHT22;7764;51.430;6.840;2023-07-16T00:35:21;20.10;99.90
15328;DHT22;7764;51.430;6.840;2023-07-16T00:37:48;20.10;99.90
15328;DHT22;7764;51.430;6.840;2023-07-16T00:40:15;20.00;99.90
15328;DHT22;7764;51.430;6.840;2023-07-16T00:42:43;19.90;99.90
15328;DHT22;7764;51.430;6.840;2023-07-16T00:45:12;19.90;99.90
15328;DHT22;7764;51.430;6.840;2023-07-16T00:47:41;19.90;99.90
15328;DHT22;7764;51.430;6.840;2023-07-16T00:50:09;19.70;99.90
15328;DHT22;7764;51.430;6.840;2023-07-16T00:52:37;19.70;99.90
15328;DHT22;7764;51.430;6.840;2023-07-16T00:55:05;19.60;99.90
15328;DHT22;7764;51.430;6.840;2023-07-16T00:57:33;19.60;99.90
15328;DHT22;7764;51.430;6.840;2023-07-16T01:00:02;19.60;99.90
15328;DHT22;7764;51.430;6.840;2023-07-16T01:02:29;19.60;99.90
15328;DHT22;7764;51.430;6.840;2023-07-16T01:04:55;19.50;99.90
15328;DHT22;7764;51.430;6.840;2023-07-16T01:07:24;19.50;99.90
15328;DHT22;7764;51.430;6.840;2023-07-16T01:09:53;19.40;99.90
15328;DHT22;7764;51.430;6.840;2023-07-16T01:12:21;19.30;99.90
15328;DHT22;7764;51.430;6.840;2023-07-16T01:14:49;19.30;99.90
15328;DHT22;7764;51.430;6.840;2023-07-16T01:17:18;19.20;99.90
15328;DHT22;7764;51.430;6.840;2023-07-16T01:19:45;19.30;99.90
15328;DHT22;7764;51.430;6.840;2023-07-16T01:22:42;19.20;99.90
15328;DHT22;7764;51.430;6.840;2023-07-16T01:25:36;19.20;99.90
15328;DHT22;7764;51.430;6.840;2023-07-16T01:28:21;19.20;99.90
15328;DHT22;7764;51.430;6.840;2023-07-16T01:30:52;19.20;99.90
15328;DHT22;7764;51.430;6.840;2023-07-16T01:33:20;19.10;99.90
15328;DHT22;7764;51.430;6.840;2023-07-16T01:35:47;19.10;99.90
15328;DHT22;7764;51.430;6.840;2023-07-16T01:38:16;19.10;99.90
15328;DHT22;7764;51.430;6.840;2023-07-16T01:40:44;19.00;99.90
15328;DHT22;7764;51.430;6.840;2023-07-16T01:43:11;19.10;99.90
15328;DHT22;7764;51.430;6.840;2023-07-16T01:45:37;19.00;99.90
15328;DHT22;7764;51.430;6.840;2023-07-16T01:48:14;19.00;99.90
15328;DHT22;7764;51.430;6.840;2023-07-16T01:50:42;19.00;99.90
15328;DHT22;7764;51.430;6.840;2023-07-16T01:53:09;19.00;99.90
15328;DHT22;7764;51.430;6.840;2023-07-16T01:55:36;19.00;99.90
15328;DHT22;7764;51.430;6.840;2023-07-16T01:58:03;18.90;99.90
15328;DHT22;7764;51.430;6.840;2023-07-16T02:00:31;18.90;99.90
15328;DHT22;7764;51.430;6.840;2023-07-16T02:02:57;18.90;99.90
15328;DHT22;7764;51.430;6.840;2023-07-16T02:05:26;18.90;99.90
15328;DHT22;7764;51.430;6.840;2023-07-16T02:07:52;18.90;99.90
15328;DHT22;7764;51.430;6.840;2023-07-16T02:10:19;18.90;99.90
15328;DHT22;7764;51.430;6.840;2023-07-16T02:12:46;18.90;99.90
15328;DHT22;7764;51.430;6.840;2023-07-16T02:15:13;18.90;99.90
15328;DHT22;7764;51.430;6.840;2023-07-16T02:17:41;19.00;99.90
15328;DHT22;7764;51.430;6.840;2023-07-16T02:20:09;19.00;99.90
15328;DHT22;7764;51.430;6.840;2023-07-16T02:22:37;18.90;99.90
15328;DHT22;7764;51.430;6.840;2023-07-16T02:25:05;18.90;99.90
15328;DHT22;7764;51.430;6.840;2023-07-16T02:27:32;18.80;99.90
15328;DHT22;7764;51.430;6.840;2023-07-16T02:29:59;18.90;99.90
15328;DHT22;7764;51.430;6.840;2023-07-16T02:32:26;18.80;99.90
15328;DHT22;7764;51.430;6.840;2023-07-16T02:34:52;18.80;99.90
15328;DHT22;7764;51.430;6.840;2023-07-16T02:37:19;18.80;99.90
15328;DHT22;7764;51.430;6.840;2023-07-16T02:39:47;18.80;99.90
15328;DHT22;7764;51.430;6.840;2023-07-16T02:42:14;18.80;99.90
15328;DHT22;7764;51.430;6.840;2023-07-16T02:44:41;18.80;99.90
15328;DHT22;7764;51.430;6.840;2023-07-16T02:47:10;18.80;99.90
15328;DHT22;7764;51.430;6.840;2023-07-16T02:49:37;18.90;99.90
15328;DHT22;7764;51.430;6.840;2023-07-16T02:52:05;18.80;99.90
15328;DHT22;7764;51.430;6.840;2023-07-16T02:54:32;18.90;99.90
15328;DHT22;7764;51.430;6.840;2023-07-16T02:57:00;18.90;99.90
15328;DHT22;7764;51.430;6.840;2023-07-16T02:59:27;18.90;99.90
15328;DHT22;7764;51.430;6.840;2023-07-16T03:01:54;18.90;99.90
15328;DHT22;7764;51.430;6.840;2023-07-16T03:04:21;18.80;99.90
15328;DHT22;7764;51.430;6.840;2023-07-16T03:06:48;18.80;99.90
15328;DHT22;7764;51.430;6.840;2023-07-16T03:09:15;18.90;99.90
15328;DHT22;7764;51.430;6.840;2023-07-16T03:11:42;18.90;99.90
15328;DHT22;7764;51.430;6.840;2023-07-16T03:14:10;18.80;99.90
15328;DHT22;7764;51.430;6.840;2023-07-16T03:16:37;18.80;99.90
15328;DHT22;7764;51.430;6.840;2023-07-16T03:19:03;18.70;99.90
15328;DHT22;7764;51.430;6.840;2023-07-16T03:21:31;18.70;99.90
15328;DHT22;7764;51.430;6.840;2023-07-16T03:23:58;18.70;99.90
15328;DHT22;7764;51.430;6.840;2023-07-16T03:26:25;18.70;99.90
15328;DHT22;7764;51.430;6.840;2023-07-16T03:28:52;18.70;99.90
15328;DHT22;7764;51.430;6.840;2023-07-16T03:31:20;18.60;99.90
15328;DHT22;7764;51.430;6.840;2023-07-16T03:33:46;18.50;99.90
15328;DHT22;7764;51.430;6.840;2023-07-16T03:36:13;18.50;99.90
15328;DHT22;7764;51.430;6.840;2023-07-16T03:38:40;18.60;99.90
15328;DHT22;7764;51.430;6.840;2023-07-16T03:41:07;18.60;99.90
15328;DHT22;7764;51.430;6.840;2023-07-16T03:43:33;18.50;99.90
15328;DHT22;7764;51.430;6.840;2023-07-16T03:46:00;18.50;99.90
15328;DHT22;7764;51.430;6.840;2023-07-16T03:48:28;18.60;99.90
15328;DHT22;7764;51.430;6.840;2023-07-16T03:50:55;18.50;99.90
15328;DHT22;7764;51.430;6.840;2023-07-16T03:53:22;18.60;99.90
15328;DHT22;7764;51.430;6.840;2023-07-16T03:55:49;18.60;99.90
15328;DHT22;7764;51.430;6.840;2023-07-16T03:58:16;18.60;99.90
15328;DHT22;7764;51.430;6.840;2023-07-16T04:00:43;18.60;99.90
15328;DHT22;7764;51.430;6.840;2023-07-16T04:03:10;18.50;99.90
15328;DHT22;7764;51.430;6.840;2023-07-16T04:05:38;18.50;99.90
15328;DHT22;7764;51.430;6.840;2023-07-16T04:08:05;18.50;99.90
15328;DHT22;7764;51.430;6.840;2023-07-16T04:10:33;18.50;99.90
15328;DHT22;7764;51.430;6.840;2023-07-16T04:13:00;18.50;99.90
15328;DHT22;7764;51.430;6.840;2023-07-16T04:15:27;18.50;99.90
15328;DHT22;7764;51.430;6.840;2023-07-16T04:17:54;18.60;99.90
15328;DHT22;7764;51.430;6.840;2023-07-16T04:20:21;18.80;99.90
15328;DHT22;7764;51.430;6.840;2023-07-16T04:22:49;19.20;99.90
15328;DHT22;7764;51.430;6.840;2023-07-16T04:25:17;19.40;99.90
15328;DHT22;7764;51.430;6.840;2023-07-16T04:27:44;19.60;99.90
15328;DHT22;7764;51.430;6.840;2023-07-16T04:30:11;20.00;99.90
15328;DHT22;7764;51.430;6.840;2023-07-16T04:32:38;20.30;99.90
15328;DHT22;7764;51.430;6.840;2023-07-16T04:35:06;20.50;99.90
15328;DHT22;7764;51.430;6.840;2023-07-16T04:37:32;21.00;99.90
15328;DHT22;7764;51.430;6.840;2023-07-16T04:40:01;21.10;99.90
15328;DHT22;7764;51.430;6.840;2023-07-16T04:42:28;21.40;99.90
15328;DHT22;7764;51.430;6.840;2023-07-16T04:44:55;21.50;99.90
15328;DHT22;7764;51.430;6.840;2023-07-16T04:47:21;21.60;99.90
15328;DHT22;7764;51.430;6.840;2023-07-16T04:49:48;21.70;99.90
15328;DHT22;7764;51.430;6.840;2023-07-16T04:52:15;21.90;99.90
15328;DHT22;7764;51.430;6.840;2023-07-16T04:54:43;21.80;99.90
15328;DHT22;7764;51.430;6.840;2023-07-16T04:57:12;21.90;99.90
15328;DHT22;7764;51.430;6.840;2023-07-16T04:59:39;22.40;99.90
15328;DHT22;7764;51.430;6.840;2023-07-16T05:02:06;22.70;99.90
15328;DHT22;7764;51.430;6.840;2023-07-16T05:04:33;22.90;99.90
15328;DHT22;7764;51.430;6.840;2023-07-16T05:07:01;22.90;99.90
15328;DHT22;7764;51.430;6.840;2023-07-16T05:09:28;22.90;99.90
15328;DHT22;7764;51.430;6.840;2023-07-16T05:11:55;23.10;99.90
15328;DHT22;7764;51.430;6.840;2023-07-16T05:14:26;23.00;99.90
15328;DHT22;7764;51.430;6.840;2023-07-16T05:16:54;23.20;99.90
15328;DHT22;7764;51.430;6.840;2023-07-16T05:19:21;23.50;99.90
15328;DHT22;7764;51.430;6.840;2023-07-16T05:21:48;23.40;99.90
15328;DHT22;7764;51.430;6.840;2023-07-16T05:24:15;23.40;99.90
15328;DHT22;7764;51.430;6.840;2023-07-16T05:26:41;23.60;99.90
15328;DHT22;7764;51.430;6.840;2023-07-16T05:29:08;23.60;99.90
15328;DHT22;7764;51.430;6.840;2023-07-16T05:31:36;23.70;99.90
15328;DHT22;7764;51.430;6.840;2023-07-16T05:34:03;23.70;99.90
15328;DHT22;7764;51.430;6.840;2023-07-16T05:36:30;24.00;99.90
15328;DHT22;7764;51.430;6.840;2023-07-16T05:38:57;24.30;99.90
15328;DHT22;7764;51.430;6.840;2023-07-16T05:41:24;24.20;99.90
15328;DHT22;7764;51.430;6.840;2023-07-16T05:43:50;24.00;99.90
15328;DHT22;7764;51.430;6.840;2023-07-16T05:46:17;23.80;99.90
15328;DHT22;7764;51.430;6.840;2023-07-16T05:48:45;23.70;99.90
15328;DHT22;7764;51.430;6.840;2023-07-16T05:51:13;24.00;99.90
15328;DHT22;7764;51.430;6.840;2023-07-16T05:53:40;23.90;99.90
15328;DHT22;7764;51.430;6.840;2023-07-16T05:56:07;23.60;99.90
15328;DHT22;7764;51.430;6.840;2023-07-16T05:58:34;24.00;99.90
15328;DHT22;7764;51.430;6.840;2023-07-16T06:01:01;24.20;99.90
15328;DHT22;7764;51.430;6.840;2023-07-16T06:03:28;24.30;99.90
15328;DHT22;7764;51.430;6.840;2023-07-16T06:05:56;24.30;99.90
15328;DHT22;7764;51.430;6.840;2023-07-16T06:08:23;24.20;99.90
15328;DHT22;7764;51.430;6.840;2023-07-16T06:10:50;24.50;99.90
15328;DHT22;7764;51.430;6.840;2023-07-16T06:13:17;24.50;99.90
15328;DHT22;7764;51.430;6.840;2023-07-16T06:15:44;24.40;99.90
15328;DHT22;7764;51.430;6.840;2023-07-16T06:18:11;24.60;99.90
15328;DHT22;7764;51.430;6.840;2023-07-16T06:20:37;24.90;99.90
15328;DHT22;7764;51.430;6.840;2023-07-16T06:23:06;24.90;99.90
15328;DHT22;7764;51.430;6.840;2023-07-16T06:25:33;25.10;99.20
15328;DHT22;7764;51.430;6.840;2023-07-16T06:27:59;25.10;97.50
15328;DHT22;7764;51.430;6.840;2023-07-16T06:30:26;25.30;99.90
15328;DHT22;7764;51.430;6.840;2023-07-16T06:32:53;25.30;99.60
15328;DHT22;7764;51.430;6.840;2023-07-16T06:35:20;25.50;96.70
15328;DHT22;7764;51.430;6.840;2023-07-16T06:37:47;25.70;95.30
15328;DHT22;7764;51.430;6.840;2023-07-16T06:40:15;26.00;92.30
15328;DHT22;7764;51.430;6.840;2023-07-16T06:42:42;26.00;94.30
15328;DHT22;7764;51.430;6.840;2023-07-16T06:45:09;25.60;93.60
15328;DHT22;7764;51.430;6.840;2023-07-16T06:47:36;26.00;91.80
15328;DHT22;7764;51.430;6.840;2023-07-16T06:50:03;25.70;90.50
15328;DHT22;7764;51.430;6.840;2023-07-16T06:52:30;25.70;94.30
15328;DHT22;7764;51.430;6.840;2023-07-16T06:54:57;25.70;91.10
15328;DHT22;7764;51.430;6.840;2023-07-16T06:57:25;25.40;91.30
15328;DHT22;7764;51.430;6.840;2023-07-16T06:59:52;25.10;91.90
15328;DHT22;7764;51.430;6.840;2023-07-16T07:02:19;25.10;92.00
15328;DHT22;7764;51.430;6.840;2023-07-16T07:04:46;25.00;92.10
15328;DHT22;7764;51.430;6.840;2023-07-16T07:07:13;25.40;90.00
15328;DHT22;7764;51.430;6.840;2023-07-16T07:09:40;25.60;90.00
15328;DHT22;7764;51.430;6.840;2023-07-16T07:12:07;25.80;88.10
15328;DHT22;7764;51.430;6.840;2023-07-16T07:14:36;26.50;91.10
15328;DHT22;7764;51.430;6.840;2023-07-16T07:17:03;25.80;88.20
15328;DHT22;7764;51.430;6.840;2023-07-16T07:19:30;25.70;85.30
15328;DHT22;7764;51.430;6.840;2023-07-16T07:21:57;25.60;85.90
15328;DHT22;7764;51.430;6.840;2023-07-16T07:24:24;25.90;85.60
15328;DHT22;7764;51.430;6.840;2023-07-16T07:26:51;25.60;85.20
15328;DHT22;7764;51.430;6.840;2023-07-16T07:29:18;25.50;84.30
15328;DHT22;7764;51.430;6.840;2023-07-16T07:31:46;25.70;85.00
15328;DHT22;7764;51.430;6.840;2023-07-16T07:34:13;25.60;84.80
15328;DHT22;7764;51.430;6.840;2023-07-16T07:36:39;25.90;84.30
15328;DHT22;7764;51.430;6.840;2023-07-16T07:39:07;25.70;85.10
15328;DHT22;7764;51.430;6.840;2023-07-16T07:41:34;25.60;82.20
15328;DHT22;7764;51.430;6.840;2023-07-16T07:44:01;26.00;84.90
15328;DHT22;7764;51.430;6.840;2023-07-16T07:46:27;26.10;82.50
15328;DHT22;7764;51.430;6.840;2023-07-16T07:48:56;26.10;83.60
15328;DHT22;7764;51.430;6.840;2023-07-16T07:51:23;26.20;82.80
15328;DHT22;7764;51.430;6.840;2023-07-16T07:53:49;26.00;82.10
15328;DHT22;7764;51.430;6.840;2023-07-16T07:56:16;26.00;80.20
15328;DHT22;7764;51.430;6.840;2023-07-16T07:58:43;25.60;81.60
15328;DHT22;7764;51.430;6.840;2023-07-16T08:01:10;26.10;82.00
15328;DHT22;7764;51.430;6.840;2023-07-16T08:03:37;25.70;81.70
15328;DHT22;7764;51.430;6.840;2023-07-16T08:06:05;25.70;82.00
15328;DHT22;7764;51.430;6.840;2023-07-16T08:08:32;25.50;81.00
15328;DHT22;7764;51.430;6.840;2023-07-16T08:10:59;25.30;80.50
15328;DHT22;7764;51.430;6.840;2023-07-16T08:13:25;25.40;81.50
15328;DHT22;7764;51.430;6.840;2023-07-16T08:15:52;25.40;81.60
15328;DHT22;7764;51.430;6.840;2023-07-16T08:18:19;25.30;82.50
15328;DHT22;7764;51.430;6.840;2023-07-16T08:20:46;25.80;82.40
15328;DHT22;7764;51.430;6.840;2023-07-16T08:23:15;26.10;82.10
15328;DHT22;7764;51.430;6.840;2023-07-16T08:25:42;26.70;81.10
15328;DHT22;7764;51.430;6.840;2023-07-16T08:28:09;26.40;77.80
15328;DHT22;7764;51.430;6.840;2023-07-16T08:30:37;26.10;78.80
15328;DHT22;7764;51.430;6.840;2023-07-16T08:33:04;26.20;78.70
15328;DHT22;7764;51.430;6.840;2023-07-16T08:35:31;26.20;79.20
15328;DHT22;7764;51.430;6.840;2023-07-16T08:37:58;26.50;77.80
15328;DHT22;7764;51.430;6.840;2023-07-16T08:40:26;26.80;76.60
15328;DHT22;7764;51.430;6.840;2023-07-16T08:42:55;26.40;76.50
15328;DHT22;7764;51.430;6.840;2023-07-16T08:45:24;26.40;76.50
15328;DHT22;7764;51.430;6.840;2023-07-16T08:47:52;26.00;78.00
15328;DHT22;7764;51.430;6.840;2023-07-16T08:50:20;26.10;78.40
15328;DHT22;7764;51.430;6.840;2023-07-16T08:52:48;25.90;77.90
15328;DHT22;7764;51.430;6.840;2023-07-16T08:55:16;25.40;79.40
15328;DHT22;7764;51.430;6.840;2023-07-16T08:57:45;25.30;82.90
15328;DHT22;7764;51.430;6.840;2023-07-16T09:00:14;25.10;82.50
15328;DHT22;7764;51.430;6.840;2023-07-16T09:02:41;25.30;82.60
15328;DHT22;7764;51.430;6.840;2023-07-16T09:05:09;25.40;84.80
15328;DHT22;7764;51.430;6.840;2023-07-16T09:07:49;25.60;81.90
15328;DHT22;7764;51.430;6.840;2023-07-16T09:10:33;25.30;79.20
15328;DHT22;7764;51.430;6.840;2023-07-16T09:13:01;25.70;80.40
15328;DHT22;7764;51.430;6.840;2023-07-16T09:15:30;25.80;78.00
15328;DHT22;7764;51.430;6.840;2023-07-16T09:17:59;25.80;78.80
15328;DHT22;7764;51.430;6.840;2023-07-16T09:20:27;25.50;78.40
15328;DHT22;7764;51.430;6.840;2023-07-16T09:23:03;25.60;78.30
15328;DHT22;7764;51.430;6.840;2023-07-16T09:25:34;25.40;78.70
15328;DHT22;7764;51.430;6.840;2023-07-16T09:28:19;24.70;81.80
15328;DHT22;7764;51.430;6.840;2023-07-16T09:30:46;25.00;80.50
15328;DHT22;7764;51.430;6.840;2023-07-16T09:33:14;25.00;80.90
15328;DHT22;7764;51.430;6.840;2023-07-16T09:35:41;25.20;79.00
15328;DHT22;7764;51.430;6.840;2023-07-16T09:38:09;25.50;79.50
15328;DHT22;7764;51.430;6.840;2023-07-16T09:40:36;25.70;79.90
15328;DHT22;7764;51.430;6.840;2023-07-16T09:43:03;25.90;79.20
15328;DHT22;7764;51.430;6.840;2023-07-16T09:45:32;25.60;79.00
15328;DHT22;7764;51.430;6.840;2023-07-16T09:47:59;25.70;79.30
15328;DHT22;7764;51.430;6.840;2023-07-16T09:50:28;25.60;79.50
15328;DHT22;7764;51.430;6.840;2023-07-16T09:52:59;25.70;79.70
15328;DHT22;7764;51.430;6.840;2023-07-16T09:55:31;25.50;78.70
15328;DHT22;7764;51.430;6.840;2023-07-16T09:58:00;25.10;79.30
15328;DHT22;7764;51.430;6.840;2023-07-16T10:00:28;25.20;81.10
15328;DHT22;7764;51.430;6.840;2023-07-16T10:02:58;25.10;80.20
15328;DHT22;7764;51.430;6.840;2023-07-16T10:05:26;25.50;79.10
15328;DHT22;7764;51.430;6.840;2023-07-16T10:07:54;25.70;79.30
15328;DHT22;7764;51.430;6.840;2023-07-16T10:10:26;25.80;78.70
15328;DHT22;7764;51.430;6.840;2023-07-16T10:13:06;25.70;78.50
15328;DHT22;7764;51.430;6.840;2023-07-16T10:15:38;25.30;78.80
15328;DHT22;7764;51.430;6.840;2023-07-16T10:18:25;25.40;81.40
15328;DHT22;7764;51.430;6.840;2023-07-16T10:21:03;25.70;79.30
15328;DHT22;7764;51.430;6.840;2023-07-16T10:23:56;25.80;79.10
15328;DHT22;7764;51.430;6.840;2023-07-16T10:26:27;25.70;77.70
15328;DHT22;7764;51.430;6.840;2023-07-16T10:29:03;25.70;77.80
15328;DHT22;7764;51.430;6.840;2023-07-16T10:31:42;25.60;76.60
15328;DHT22;7764;51.430;6.840;2023-07-16T10:34:25;25.60;78.20
15328;DHT22;7764;51.430;6.840;2023-07-16T10:37:04;26.00;78.00
15328;DHT22;7764;51.430;6.840;2023-07-16T10:40:09;26.20;76.80
15328;DHT22;7764;51.430;6.840;2023-07-16T10:42:57;25.80;77.30
15328;DHT22;7764;51.430;6.840;2023-07-16T10:45:29;26.00;79.20
15328;DHT22;7764;51.430;6.840;2023-07-16T10:48:26;26.10;78.70
15328;DHT22;7764;51.430;6.840;2023-07-16T10:51:03;26.20;77.80
15328;DHT22;7764;51.430;6.840;2023-07-16T10:53:59;25.80;76.80
15328;DHT22;7764;51.430;6.840;2023-07-16T10:56:43;25.80;78.40
15328;DHT22;7764;51.430;6.840;2023-07-16T10:59:21;25.90;76.90
15328;DHT22;7764;51.430;6.840;2023-07-16T11:01:57;25.80;77.00
15328;DHT22;7764;51.430;6.840;2023-07-16T11:04:38;25.50;76.90
15328;DHT22;7764;51.430;6.840;2023-07-16T11:07:19;25.80;78.20
15328;DHT22;7764;51.430;6.840;2023-07-16T11:10:17;25.90;79.50
15328;DHT22;7764;51.430;6.840;2023-07-16T11:12:51;25.70;76.90
15328;DHT22;7764;51.430;6.840;2023-07-16T11:15:31;25.60;77.70
15328;DHT22;7764;51.430;6.840;2023-07-16T11:17:58;25.70;78.20
15328;DHT22;7764;51.430;6.840;2023-07-16T11:20:26;25.60;77.70
15328;DHT22;7764;51.430;6.840;2023-07-16T11:23:02;25.60;79.80
15328;DHT22;7764;51.430;6.840;2023-07-16T11:25:38;25.50;77.10
15328;DHT22;7764;51.430;6.840;2023-07-16T11:28:07;25.50;77.60
15328;DHT22;7764;51.430;6.840;2023-07-16T11:30:44;25.40;80.10
15328;DHT22;7764;51.430;6.840;2023-07-16T11:33:20;25.10;77.90
15328;DHT22;7764;51.430;6.840;2023-07-16T11:35:57;25.10;78.50
15328;DHT22;7764;51.430;6.840;2023-07-16T11:38:36;25.00;79.80
15328;DHT22;7764;51.430;6.840;2023-07-16T11:41:07;25.10;79.10
15328;DHT22;7764;51.430;6.840;2023-07-16T11:43:46;24.80;78.60
15328;DHT22;7764;51.430;6.840;2023-07-16T11:46:22;25.20;78.70
15328;DHT22;7764;51.430;6.840;2023-07-16T11:48:49;25.30;78.10
15328;DHT22;7764;51.430;6.840;2023-07-16T11:51:24;25.20;77.80
15328;DHT22;7764;51.430;6.840;2023-07-16T11:53:57;25.10;78.00
15328;DHT22;7764;51.430;6.840;2023-07-16T11:56:28;25.20;78.60
15328;DHT22;7764;51.430;6.840;2023-07-16T11:59:02;25.10;79.30
15328;DHT22;7764;51.430;6.840;2023-07-16T12:01:29;25.10;80.70
15328;DHT22;7764;51.430;6.840;2023-07-16T12:04:00;25.00;81.70
15328;DHT22;7764;51.430;6.840;2023-07-16T12:06:30;25.00;80.10
15328;DHT22;7764;51.430;6.840;2023-07-16T12:08:59;25.30;80.60
15328;DHT22;7764;51.430;6.840;2023-07-16T12:11:29;25.40;78.40
15328;DHT22;7764;51.430;6.840;2023-07-16T12:13:57;25.40;78.90
15328;DHT22;7764;51.430;6.840;2023-07-16T12:16:26;25.00;79.20
15328;DHT22;7764;51.430;6.840;2023-07-16T12:18:53;24.90;80.20
15328;DHT22;7764;51.430;6.840;2023-07-16T12:21:20;24.80;82.20
15328;DHT22;7764;51.430;6.840;2023-07-16T12:23:47;25.00;81.60
15328;DHT22;7764;51.430;6.840;2023-07-16T12:26:24;25.40;80.80
15328;DHT22;7764;51.430;6.840;2023-07-16T12:28:51;25.60;79.70
15328;DHT22;7764;51.430;6.840;2023-07-16T12:31:30;25.60;78.70
15328;DHT22;7764;51.430;6.840;2023-07-16T12:34:04;25.60;78.80
15328;DHT22;7764;51.430;6.840;2023-07-16T12:36:36;25.40;78.70
15328;DHT22;7764;51.430;6.840;2023-07-16T12:39:23;25.40;79.80
15328;DHT22;7764;51.430;6.840;2023-07-16T12:41:52;25.00;78.00
15328;DHT22;7764;51.430;6.840;2023-07-16T12:44:24;25.50;79.40
15328;DHT22;7764;51.430;6.840;2023-07-16T12:46:51;25.30;77.30
15328;DHT22;7764;51.430;6.840;2023-07-16T12:49:19;25.50;78.20
15328;DHT22;7764;51.430;6.840;2023-07-16T12:51:51;25.60;78.90
15328;DHT22;7764;51.430;6.840;2023-07-16T12:54:18;25.90;77.60
15328;DHT22;7764;51.430;6.840;2023-07-16T12:56:55;26.10;77.30
15328;DHT22;7764;51.430;6.840;2023-07-16T12:59:33;26.30;77.50
15328;DHT22;7764;51.430;6.840;2023-07-16T13:02:05;26.10;76.10
15328;DHT22;7764;51.430;6.840;2023-07-16T13:04:37;25.90;75.40
15328;DHT22;7764;51.430;6.840;2023-07-16T13:07:11;25.70;74.90
15328;DHT22;7764;51.430;6.840;2023-07-16T13:09:41;25.80;77.00
15328;DHT22;7764;51.430;6.840;2023-07-16T13:12:16;26.10;75.50
15328;DHT22;7764;51.430;6.840;2023-07-16T13:14:43;26.10;74.10
15328;DHT22;7764;51.430;6.840;2023-07-16T13:17:10;26.00;74.50
15328;DHT22;7764;51.430;6.840;2023-07-16T13:19:37;26.20;74.20
15328;DHT22;7764;51.430;6.840;2023-07-16T13:22:04;26.00;75.10
15328;DHT22;7764;51.430;6.840;2023-07-16T13:24:31;26.10;75.70
15328;DHT22;7764;51.430;6.840;2023-07-16T13:26:58;25.80;75.80
15328;DHT22;7764;51.430;6.840;2023-07-16T13:29:26;25.80;76.70
15328;DHT22;7764;51.430;6.840;2023-07-16T13:31:53;25.80;77.40
15328;DHT22;7764;51.430;6.840;2023-07-16T13:34:20;25.60;77.60
15328;DHT22;7764;51.430;6.840;2023-07-16T13:36:46;25.60;79.50
15328;DHT22;7764;51.430;6.840;2023-07-16T13:39:13;25.50;78.50
15328;DHT22;7764;51.430;6.840;2023-07-16T13:41:40;25.40;78.60
15328;DHT22;7764;51.430;6.840;2023-07-16T13:44:07;25.20;78.70
15328;DHT22;7764;51.430;6.840;2023-07-16T13:46:35;25.50;80.80
15328;DHT22;7764;51.430;6.840;2023-07-16T13:49:03;25.70;79.60
15328;DHT22;7764;51.430;6.840;2023-07-16T13:51:30;25.70;78.50
15328;DHT22;7764;51.430;6.840;2023-07-16T13:53:57;25.60;76.60
15328;DHT22;7764;51.430;6.840;2023-07-16T13:56:24;25.70;75.80
15328;DHT22;7764;51.430;6.840;2023-07-16T13:58:50;25.50;76.10
15328;DHT22;7764;51.430;6.840;2023-07-16T14:01:19;25.70;77.00
15328;DHT22;7764;51.430;6.840;2023-07-16T14:03:48;26.10;78.50
15328;DHT22;7764;51.430;6.840;2023-07-16T14:06:15;26.00;76.60
15328;DHT22;7764;51.430;6.840;2023-07-16T14:08:41;25.90;74.90
15328;DHT22;7764;51.430;6.840;2023-07-16T14:11:08;26.00;73.50
15328;DHT22;7764;51.430;6.840;2023-07-16T14:13:35;26.20;74.00
15328;DHT22;7764;51.430;6.840;2023-07-16T14:16:02;26.30;73.90
15328;DHT22;7764;51.430;6.840;2023-07-16T14:18:30;26.30;71.10
15328;DHT22;7764;51.430;6.840;2023-07-16T14:20:58;26.00;72.10
15328;DHT22;7764;51.430;6.840;2023-07-16T14:23:25;26.20;71.40
15328;DHT22;7764;51.430;6.840;2023-07-16T14:25:52;26.30;68.50
15328;DHT22;7764;51.430;6.840;2023-07-16T14:28:22;26.50;68.60
15328;DHT22;7764;51.430;6.840;2023-07-16T14:30:49;26.40;67.30
15328;DHT22;7764;51.430;6.840;2023-07-16T14:33:16;26.80;69.20
15328;DHT22;7764;51.430;6.840;2023-07-16T14:35:43;27.10;68.00
15328;DHT22;7764;51.430;6.840;2023-07-16T14:38:11;26.80;68.50
15328;DHT22;7764;51.430;6.840;2023-07-16T14:40:38;27.00;69.20
15328;DHT22;7764;51.430;6.840;2023-07-16T14:43:05;26.80;68.70
15328;DHT22;7764;51.430;6.840;2023-07-16T14:45:33;26.50;67.80
15328;DHT22;7764;51.430;6.840;2023-07-16T14:48:00;26.40;69.80
15328;DHT22;7764;51.430;6.840;2023-07-16T14:50:27;26.40;69.40
15328;DHT22;7764;51.430;6.840;2023-07-16T14:52:54;26.40;68.00
15328;DHT22;7764;51.430;6.840;2023-07-16T14:55:22;26.40;68.50
15328;DHT22;7764;51.430;6.840;2023-07-16T14:57:49;26.40;67.00
15328;DHT22;7764;51.430;6.840;2023-07-16T15:00:16;26.30;66.30
15328;DHT22;7764;51.430;6.840;2023-07-16T15:02:43;26.30;67.70
15328;DHT22;7764;51.430;6.840;2023-07-16T15:05:10;26.30;67.80
15328;DHT22;7764;51.430;6.840;2023-07-16T15:07:37;26.30;67.90
15328;DHT22;7764;51.430;6.840;2023-07-16T15:10:15;26.30;68.40
15328;DHT22;7764;51.430;6.840;2023-07-16T15:12:43;26.40;69.60
15328;DHT22;7764;51.430;6.840;2023-07-16T15:15:11;26.20;68.80
15328;DHT22;7764;51.430;6.840;2023-07-16T15:17:37;26.20;69.00
15328;DHT22;7764;51.430;6.840;2023-07-16T15:20:05;26.30;69.70
15328;DHT22;7764;51.430;6.840;2023-07-16T15:22:34;26.00;69.40
15328;DHT22;7764;51.430;6.840;2023-07-16T15:25:01;25.90;69.90
15328;DHT22;7764;51.430;6.840;2023-07-16T15:27:29;25.90;70.60
15328;DHT22;7764;51.430;6.840;2023-07-16T15:29:58;26.00;72.60
15328;DHT22;7764;51.430;6.840;2023-07-16T15:32:25;26.20;71.70
15328;DHT22;7764;51.430;6.840;2023-07-16T15:34:52;26.10;71.90
15328;DHT22;7764;51.430;6.840;2023-07-16T15:37:19;26.00;72.80
15328;DHT22;7764;51.430;6.840;2023-07-16T15:39:46;26.00;70.80
15328;DHT22;7764;51.430;6.840;2023-07-16T15:42:12;26.20;71.20
15328;DHT22;7764;51.430;6.840;2023-07-16T15:44:39;26.00;71.10
15328;DHT22;7764;51.430;6.840;2023-07-16T15:47:10;26.20;71.30
15328;DHT22;7764;51.430;6.840;2023-07-16T15:49:36;26.10;71.50
15328;DHT22;7764;51.430;6.840;2023-07-16T15:52:04;26.00;71.00
15328;DHT22;7764;51.430;6.840;2023-07-16T15:54:31;26.00;71.50
15328;DHT22;7764;51.430;6.840;2023-07-16T15:56:57;26.00;71.10